sensor_id;sensor_type;location;lat;lon;timestamp;pressure;altitude;pressure_sealevel;temperature;humidity
39823;BME280;25499;53.958;10.970;2023-04-15T06:27:41;100953.50;;;6.73;100.00
39823;BME280;25499;53.958;10.970;2023-04-15T06:30:07;100958.84;;;6.83;100.00
39823;BME280;25499;53.958;10.970;2023-04-15T06:32:33;100960.56;;;6.84;100.00
39823;BME280;25499;53.958;10.970;2023-04-15T06:34:58;100953.75;;;6.89;100.00
39823;BME280;25499;53.958;10.970;2023-04-15T06:37:24;100954.69;;;6.93;100.00
39823;BME280;25499;53.958;10.970;2023-04-15T06:39:49;100955.56;;;6.93;100.00
39823;BME280;25499;53.958;10.970;2023-04-15T06:42:15;100959.91;;;6.97;100.00
39823;BME280;25499;53.958;10.970;2023-04-15T06:44:41;100969.53;;;7.06;100.00
39823;BME280;25499;53.958;10.970;2023-04-15T06:47:06;100963.50;;;7.05;100.00
39823;BME280;25499;53.958;10.970;2023-04-15T06:49:33;100959.25;;;7.10;100.00
39823;BME280;25499;53.958;10.970;2023-04-15T06:51:59;100962.72;;;7.13;100.00
39823;BME280;25499;53.958;10.970;2023-04-15T06:54:26;100959.19;;;7.04;100.00
39823;BME280;25499;53.958;10.970;2023-04-15T06:56:51;100961.84;;;7.10;100.00
39823;BME280;25499;53.958;10.970;2023-04-15T06:59:17;100960.91;;;7.05;100.00
39823;BME280;25499;53.958;10.970;2023-04-15T07:01:43;100967.03;;;7.12;100.00
39823;BME280;25499;53.958;10.970;2023-04-15T07:04:08;100968.66;;;7.05;100.00
39823;BME280;25499;53.958;10.970;2023-04-15T07:06:35;100962.72;;;7.09;100.00
39823;BME280;25499;53.958;10.970;2023-04-15T07:09:00;100966.03;;;7.02;100.00
39823;BME280;25499;53.958;10.970;2023-04-15T07:11:27;100972.03;;;7.00;100.00
39823;BME280;25499;53.958;10.970;2023-04-15T07:13:52;100977.31;;;7.07;100.00
39823;BME280;25499;53.958;10.970;2023-04-15T07:16:18;100971.47;;;7.21;100.00
39823;BME280;25499;53.958;10.970;2023-04-15T07:18:43;100964.63;;;7.24;100.00
39823;BME280;25499;53.958;10.970;2023-04-15T07:21:09;100975.09;;;7.32;100.00
39823;BME280;25499;53.958;10.970;2023-04-15T07:23:34;100976.81;;;7.32;100.00
39823;BME280;25499;53.958;10.970;2023-04-15T07:26:00;100984.72;;;7.41;100.00
39823;BME280;25499;53.958;10.970;2023-04-15T07:28:26;100979.53;;;7.41;100.00
39823;BME280;25499;53.958;10.970;2023-04-15T07:30:52;100981.31;;;7.46;100.00
39823;BME280;25499;53.958;10.970;2023-04-15T07:33:17;100991.75;;;7.51;100.00
39823;BME280;25499;53.958;10.970;2023-04-15T07:35:43;100989.13;;;7.50;100.00
39823;BME280;25499;53.958;10.970;2023-04-15T07:38:09;100986.63;;;7.56;100.00
39823;BME280;25499;53.958;10.970;2023-04-15T07:40:37;100988.38;;;7.58;100.00
39823;BME280;25499;53.958;10.970;2023-04-15T07:43:04;100989.19;;;7.53;100.00
39823;BME280;25499;53.958;10.970;2023-04-15T07:45:30;100982.47;;;7.70;100.00
39823;BME280;25499;53.958;10.970;2023-04-15T07:47:56;100993.78;;;7.75;100.00
39823;BME280;25499;53.958;10.970;2023-04-15T07:50:21;100992.09;;;7.80;100.00
39823;BME280;25499;53.958;10.970;2023-04-15T07:52:48;100991.44;;;7.97;100.00
39823;BME280;25499;53.958;10.970;2023-04-15T07:55:13;100988.84;;;7.95;100.00
39823;BME280;25499;53.958;10.970;2023-04-15T07:57:41;100988.22;;;8.18;100.00
39823;BME280;25499;53.958;10.970;2023-04-15T08:00:07;100988.38;;;8.32;100.00
39823;BME280;25499;53.958;10.970;2023-04-15T08:02:33;100988.50;;;8.44;100.00
39823;BME280;25499;53.958;10.970;2023-04-15T08:04:59;100986.91;;;8.60;100.00
39823;BME280;25499;53.958;10.970;2023-04-15T08:07:27;100983.63;;;8.78;100.00
39823;BME280;25499;53.958;10.970;2023-04-15T08:09:52;100983.69;;;8.90;100.00
39823;BME280;25499;53.958;10.970;2023-04-15T08:12:18;100977.81;;;9.18;100.00
39823;BME280;25499;53.958;10.970;2023-04-15T08:14:43;100974.63;;;9.65;100.00
39823;BME280;25499;53.958;10.970;2023-04-15T08:17:09;100973.91;;;10.23;100.00
39823;BME280;25499;53.958;10.970;2023-04-15T08:19:34;100966.19;;;10.63;100.00
39823;BME280;25499;53.958;10.970;2023-04-15T08:22:00;100962.69;;;10.92;100.00
39823;BME280;25499;53.958;10.970;2023-04-15T08:24:25;100954.78;;;11.33;100.00
39823;BME280;25499;53.958;10.970;2023-04-15T08:26:52;100946.16;;;11.11;100.00
39823;BME280;25499;53.958;10.970;2023-04-15T08:29:17;100946.13;;;11.27;100.00
39823;BME280;25499;53.958;10.970;2023-04-15T08:31:43;100941.69;;;11.49;100.00
39823;BME280;25499;53.958;10.970;2023-04-15T08:34:10;100943.59;;;10.97;100.00
39823;BME280;25499;53.958;10.970;2023-04-15T08:36:36;100953.84;;;11.57;100.00
39823;BME280;25499;53.958;10.970;2023-04-15T08:39:01;100950.28;;;11.72;100.00
39823;BME280;25499;53.958;10.970;2023-04-15T08:41:38;100948.44;;;12.05;100.00
39823;BME280;25499;53.958;10.970;2023-04-15T08:44:05;100954.53;;;12.00;100.00
39823;BME280;25499;53.958;10.970;2023-04-15T08:46:31;100960.69;;;11.80;100.00
39823;BME280;25499;53.958;10.970;2023-04-15T08:48:59;100955.63;;;11.48;100.00
39823;BME280;25499;53.958;10.970;2023-04-15T08:51:27;100952.28;;;10.84;100.00
39823;BME280;25499;53.958;10.970;2023-04-15T08:53:53;100968.78;;;11.00;100.00
39823;BME280;25499;53.958;10.970;2023-04-15T08:56:24;100967.06;;;10.87;100.00
39823;BME280;25499;53.958;10.970;2023-04-15T08:58:51;100967.00;;;11.08;100.00
39823;BME280;25499;53.958;10.970;2023-04-15T09:01:17;100965.25;;;11.23;100.00
39823;BME280;25499;53.958;10.970;2023-04-15T09:03:42;100978.19;;;11.55;100.00
39823;BME280;25499;53.958;10.970;2023-04-15T09:06:08;100981.44;;;12.09;100.00
39823;BME280;25499;53.958;10.970;2023-04-15T09:08:34;100983.44;;;12.91;100.00
39823;BME280;25499;53.958;10.970;2023-04-15T09:11:01;100972.47;;;13.45;100.00
39823;BME280;25499;53.958;10.970;2023-04-15T09:13:28;100956.91;;;14.04;100.00
39823;BME280;25499;53.958;10.970;2023-04-15T09:15:55;100952.50;;;14.06;100.00
39823;BME280;25499;53.958;10.970;2023-04-15T09:18:29;100952.22;;;14.26;100.00
39823;BME280;25499;53.958;10.970;2023-04-15T09:20:55;100939.97;;;14.27;100.00
39823;BME280;25499;53.958;10.970;2023-04-15T09:23:21;100954.63;;;14.40;100.00
39823;BME280;25499;53.958;10.970;2023-04-15T09:25:47;100939.59;;;14.51;100.00
39823;BME280;25499;53.958;10.970;2023-04-15T09:28:13;100956.53;;;14.27;100.00
39823;BME280;25499;53.958;10.970;2023-04-15T09:30:41;100950.75;;;14.07;98.82
39823;BME280;25499;53.958;10.970;2023-04-15T09:33:13;100957.44;;;13.61;98.00
39823;BME280;25499;53.958;10.970;2023-04-15T09:35:39;100969.81;;;13.50;100.00
39823;BME280;25499;53.958;10.970;2023-04-15T09:38:09;100964.44;;;13.60;99.13
39823;BME280;25499;53.958;10.970;2023-04-15T09:40:39;100964.19;;;13.00;99.45
39823;BME280;25499;53.958;10.970;2023-04-15T09:43:05;100985.09;;;13.00;100.00
39823;BME280;25499;53.958;10.970;2023-04-15T09:45:32;100995.16;;;13.45;100.00
39823;BME280;25499;53.958;10.970;2023-04-15T09:47:59;100992.28;;;13.66;100.00
39823;BME280;25499;53.958;10.970;2023-04-15T09:50:28;100963.88;;;13.32;97.29
39823;BME280;25499;53.958;10.970;2023-04-15T09:52:54;100993.44;;;13.40;97.97
39823;BME280;25499;53.958;10.970;2023-04-15T09:58:25;101006.38;;;12.58;100.00
39823;BME280;25499;53.958;10.970;2023-04-15T10:04:05;100994.69;;;11.65;100.00
39823;BME280;25499;53.958;10.970;2023-04-15T10:06:31;101019.94;;;11.36;100.00
39823;BME280;25499;53.958;10.970;2023-04-15T10:08:58;101026.06;;;11.17;100.00
39823;BME280;25499;53.958;10.970;2023-04-15T10:11:27;101032.16;;;10.88;100.00
39823;BME280;25499;53.958;10.970;2023-04-15T10:13:55;101037.38;;;11.05;100.00
39823;BME280;25499;53.958;10.970;2023-04-15T10:20:14;101045.97;;;10.38;100.00
39823;BME280;25499;53.958;10.970;2023-04-15T10:23:08;101046.06;;;10.96;100.00
39823;BME280;25499;53.958;10.970;2023-04-15T10:25:59;101047.81;;;10.91;100.00
39823;BME280;25499;53.958;10.970;2023-04-15T10:28:51;101039.09;;;10.61;100.00
39823;BME280;25499;53.958;10.970;2023-04-15T10:31:43;101043.44;;;10.69;100.00
39823;BME280;25499;53.958;10.970;2023-04-15T10:34:34;101050.38;;;10.79;100.00
39823;BME280;25499;53.958;10.970;2023-04-15T15:13:09;101267.09;;;10.24;100.00
39823;BME280;25499;53.958;10.970;2023-04-15T15:15:48;101270.44;;;10.01;100.00
39823;BME280;25499;53.958;10.970;2023-04-15T15:18:35;101274.84;;;10.18;100.00
39823;BME280;25499;53.958;10.970;2023-04-15T15:21:11;101262.59;;;10.03;100.00
39823;BME280;25499;53.958;10.970;2023-04-15T15:23:38;101267.06;;;10.18;100.00
39823;BME280;25499;53.958;10.970;2023-04-15T15:26:04;101266.97;;;10.04;100.00
39823;BME280;25499;53.958;10.970;2023-04-15T15:28:35;101266.63;;;9.64;100.00
39823;BME280;25499;53.958;10.970;2023-04-15T15:31:13;101271.72;;;9.53;100.00
39823;BME280;25499;53.958;10.970;2023-04-15T15:33:40;101275.16;;;9.52;100.00
39823;BME280;25499;53.958;10.970;2023-04-15T15:36:07;101278.41;;;9.28;100.00
39823;BME280;25499;53.958;10.970;2023-04-15T15:38:42;101278.41;;;9.28;100.00
39823;BME280;25499;53.958;10.970;2023-04-15T15:41:17;101289.50;;;9.13;100.00
39823;BME280;25499;53.958;10.970;2023-04-15T15:43:42;101291.31;;;9.19;100.00
39823;BME280;25499;53.958;10.970;2023-04-15T15:46:09;101288.66;;;9.14;100.00
39823;BME280;25499;53.958;10.970;2023-04-15T15:48:54;101291.84;;;8.91;100.00
39823;BME280;25499;53.958;10.970;2023-04-15T15:51:22;101299.69;;;8.98;100.00
39823;BME280;25499;53.958;10.970;2023-04-15T15:53:49;101295.22;;;8.84;100.00
39823;BME280;25499;53.958;10.970;2023-04-15T15:56:17;101294.16;;;8.70;100.00
39823;BME280;25499;53.958;10.970;2023-04-15T15:58:45;101290.69;;;8.69;100.00
39823;BME280;25499;53.958;10.970;2023-04-15T16:01:15;101298.50;;;8.69;100.00
39823;BME280;25499;53.958;10.970;2023-04-15T16:03:47;101302.88;;;8.75;100.00
39823;BME280;25499;53.958;10.970;2023-04-15T16:06:17;101306.97;;;8.56;100.00
39823;BME280;25499;53.958;10.970;2023-04-15T16:08:46;101305.50;;;8.18;100.00
39823;BME280;25499;53.958;10.970;2023-04-15T16:11:12;101300.25;;;8.14;100.00
39823;BME280;25499;53.958;10.970;2023-04-15T16:13:38;101309.97;;;8.29;100.00
39823;BME280;25499;53.958;10.970;2023-04-15T16:16:05;101317.94;;;8.41;100.00
39823;BME280;25499;53.958;10.970;2023-04-15T16:18:35;101318.47;;;8.18;100.00
39823;BME280;25499;53.958;10.970;2023-04-15T16:21:00;101323.03;;;8.33;100.00
39823;BME280;25499;53.958;10.970;2023-04-15T16:23:28;101324.94;;;8.44;100.00
39823;BME280;25499;53.958;10.970;2023-04-15T16:25:54;101328.28;;;8.38;100.00
39823;BME280;25499;53.958;10.970;2023-04-15T16:28:20;101323.75;;;8.25;100.00
39823;BME280;25499;53.958;10.970;2023-04-15T16:30:47;101331.56;;;8.26;100.00
39823;BME280;25499;53.958;10.970;2023-04-15T16:33:13;101336.00;;;8.35;100.00
39823;BME280;25499;53.958;10.970;2023-04-15T16:35:44;101327.00;;;8.13;100.00
39823;BME280;25499;53.958;10.970;2023-04-15T16:38:10;101337.41;;;8.14;100.00
39823;BME280;25499;53.958;10.970;2023-04-15T16:40:36;101333.97;;;8.15;100.00
39823;BME280;25499;53.958;10.970;2023-04-15T16:43:03;101333.72;;;8.00;100.00
39823;BME280;25499;53.958;10.970;2023-04-15T16:45:31;101340.47;;;7.90;100.00
39823;BME280;25499;53.958;10.970;2023-04-15T16:47:57;101342.28;;;7.96;100.00
39823;BME280;25499;53.958;10.970;2023-04-15T16:50:23;101361.66;;;8.15;100.00
39823;BME280;25499;53.958;10.970;2023-04-15T16:52:50;101348.41;;;8.01;100.00
39823;BME280;25499;53.958;10.970;2023-04-15T16:55:17;101356.00;;;7.89;100.00
39823;BME280;25499;53.958;10.970;2023-04-15T16:57:44;101365.31;;;7.79;100.00
39823;BME280;25499;53.958;10.970;2023-04-15T17:00:10;101364.66;;;7.91;100.00
39823;BME280;25499;53.958;10.970;2023-04-15T17:02:36;101370.69;;;7.88;100.00
39823;BME280;25499;53.958;10.970;2023-04-15T17:05:02;101370.84;;;7.97;100.00
39823;BME280;25499;53.958;10.970;2023-04-15T17:07:28;101373.47;;;7.99;100.00
39823;BME280;25499;53.958;10.970;2023-04-15T17:09:54;101374.81;;;7.78;100.00
39823;BME280;25499;53.958;10.970;2023-04-15T17:12:19;101384.56;;;7.92;100.00
39823;BME280;25499;53.958;10.970;2023-04-15T17:14:45;101383.44;;;7.76;100.00
39823;BME280;25499;53.958;10.970;2023-04-15T17:17:11;101388.50;;;7.70;100.00
39823;BME280;25499;53.958;10.970;2023-04-15T17:19:36;101386.00;;;7.74;100.00
39823;BME280;25499;53.958;10.970;2023-04-15T17:22:02;101385.19;;;7.78;100.00
39823;BME280;25499;53.958;10.970;2023-04-15T17:24:36;101386.16;;;7.83;100.00
39823;BME280;25499;53.958;10.970;2023-04-15T17:27:03;101392.88;;;7.74;100.00
39823;BME280;25499;53.958;10.970;2023-04-15T17:29:29;101381.66;;;7.75;100.00
39823;BME280;25499;53.958;10.970;2023-04-15T17:31:56;101384.91;;;7.63;100.00
39823;BME280;25499;53.958;10.970;2023-04-15T17:34:24;101392.16;;;7.81;100.00
39823;BME280;25499;53.958;10.970;2023-04-15T17:36:50;101396.91;;;7.58;100.00
39823;BME280;25499;53.958;10.970;2023-04-15T17:39:18;101406.41;;;7.57;100.00
39823;BME280;25499;53.958;10.970;2023-04-15T17:41:45;101399.56;;;7.61;100.00
39823;BME280;25499;53.958;10.970;2023-04-15T17:44:11;101400.63;;;7.71;100.00
39823;BME280;25499;53.958;10.970;2023-04-15T17:46:37;101403.84;;;7.59;100.00
39823;BME280;25499;53.958;10.970;2023-04-15T17:49:03;101416.00;;;7.63;100.00
39823;BME280;25499;53.958;10.970;2023-04-15T17:51:30;101419.94;;;7.44;100.00
39823;BME280;25499;53.958;10.970;2023-04-15T17:53:58;101417.31;;;7.42;100.00
39823;BME280;25499;53.958;10.970;2023-04-15T17:56:26;101424.06;;;7.34;100.00
39823;BME280;25499;53.958;10.970;2023-04-15T17:59:08;101430.59;;;7.17;100.00
39823;BME280;25499;53.958;10.970;2023-04-15T18:01:34;101437.97;;;7.39;100.00
39823;BME280;25499;53.958;10.970;2023-04-15T18:04:00;101443.22;;;7.42;100.00
39823;BME280;25499;53.958;10.970;2023-04-15T18:06:26;101443.25;;;7.44;100.00
39823;BME280;25499;53.958;10.970;2023-04-15T18:08:52;101455.47;;;7.50;100.00
39823;BME280;25499;53.958;10.970;2023-04-15T18:11:21;101456.22;;;7.44;100.00
39823;BME280;25499;53.958;10.970;2023-04-15T18:13:47;101451.94;;;7.46;100.00
39823;BME280;25499;53.958;10.970;2023-04-15T18:16:13;101451.81;;;7.41;100.00
39823;BME280;25499;53.958;10.970;2023-04-15T18:18:38;101456.88;;;7.34;100.00
39823;BME280;25499;53.958;10.970;2023-04-15T18:21:18;101461.50;;;7.50;100.00
39823;BME280;25499;53.958;10.970;2023-04-15T18:23:45;101469.75;;;7.31;100.00
39823;BME280;25499;53.958;10.970;2023-04-15T18:26:12;101469.75;;;7.31;100.00
39823;BME280;25499;53.958;10.970;2023-04-15T18:28:38;101473.09;;;7.25;100.00
39823;BME280;25499;53.958;10.970;2023-04-15T18:31:04;101478.03;;;7.16;100.00
39823;BME280;25499;53.958;10.970;2023-04-15T18:33:31;101487.63;;;7.20;100.00
39823;BME280;25499;53.958;10.970;2023-04-15T18:36:00;101498.91;;;7.22;100.00
39823;BME280;25499;53.958;10.970;2023-04-15T18:38:27;101499.97;;;7.30;100.00
39823;BME280;25499;53.958;10.970;2023-04-15T18:40:53;101496.25;;;7.19;100.00
39823;BME280;25499;53.958;10.970;2023-04-15T18:43:19;101501.41;;;7.19;100.00
39823;BME280;25499;53.958;10.970;2023-04-15T18:45:45;101498.03;;;7.21;100.00
39823;BME280;25499;53.958;10.970;2023-04-15T18:48:11;101507.44;;;7.18;100.00
39823;BME280;25499;53.958;10.970;2023-04-15T18:50:38;101510.34;;;7.32;100.00
39823;BME280;25499;53.958;10.970;2023-04-15T18:53:04;101520.25;;;7.12;100.00
39823;BME280;25499;53.958;10.970;2023-04-15T18:55:31;101519.06;;;7.35;100.00
39823;BME280;25499;53.958;10.970;2023-04-15T18:57:57;101518.53;;;7.12;100.00
39823;BME280;25499;53.958;10.970;2023-04-15T19:00:23;101525.63;;;7.21;100.00
39823;BME280;25499;53.958;10.970;2023-04-15T19:02:49;101514.59;;;7.29;100.00
39823;BME280;25499;53.958;10.970;2023-04-15T19:05:15;101522.34;;;7.28;100.00
39823;BME280;25499;53.958;10.970;2023-04-15T19:07:41;101523.13;;;7.24;100.00
39823;BME280;25499;53.958;10.970;2023-04-15T19:10:09;101528.72;;;7.04;100.00
39823;BME280;25499;53.958;10.970;2023-04-15T19:12:35;101534.84;;;7.08;100.00
39823;BME280;25499;53.958;10.970;2023-04-15T19:15:05;101530.31;;;6.99;100.00
39823;BME280;25499;53.958;10.970;2023-04-15T19:17:32;101541.00;;;7.13;100.00
39823;BME280;25499;53.958;10.970;2023-04-15T19:20:11;101539.47;;;7.21;100.00
39823;BME280;25499;53.958;10.970;2023-04-15T19:22:42;101546.47;;;7.25;100.00
39823;BME280;25499;53.958;10.970;2023-04-15T19:25:27;101544.00;;;6.95;100.00
39823;BME280;25499;53.958;10.970;2023-04-15T19:27:55;101546.63;;;6.97;100.00
39823;BME280;25499;53.958;10.970;2023-04-15T19:30:30;101552.97;;;7.08;100.00
39823;BME280;25499;53.958;10.970;2023-04-15T19:33:02;101552.75;;;7.00;100.00
39823;BME280;25499;53.958;10.970;2023-04-15T19:35:33;101555.88;;;6.87;100.00
39823;BME280;25499;53.958;10.970;2023-04-15T19:37:59;101563.78;;;6.91;100.00
39823;BME280;25499;53.958;10.970;2023-04-15T19:43:07;101572.97;;;6.80;100.00
39823;BME280;25499;53.958;10.970;2023-04-15T19:45:33;101573.88;;;6.81;100.00
39823;BME280;25499;53.958;10.970;2023-04-15T19:48:08;101572.91;;;6.77;100.00
39823;BME280;25499;53.958;10.970;2023-04-15T19:50:37;101573.81;;;6.79;100.00
39823;BME280;25499;53.958;10.970;2023-04-15T19:53:04;101572.88;;;6.76;100.00
39823;BME280;25499;53.958;10.970;2023-04-15T19:55:34;101580.72;;;6.80;100.00
39823;BME280;25499;53.958;10.970;2023-04-15T19:58:21;101581.63;;;6.81;100.00
39823;BME280;25499;53.958;10.970;2023-04-15T20:00:55;101586.47;;;6.68;100.00
39823;BME280;25499;53.958;10.970;2023-04-15T20:03:41;101586.63;;;6.75;100.00
39823;BME280;25499;53.958;10.970;2023-04-15T20:06:28;101593.44;;;6.71;100.00
39823;BME280;25499;53.958;10.970;2023-04-15T20:08:54;101590.25;;;6.81;100.00
39823;BME280;25499;53.958;10.970;2023-04-15T20:11:32;101589.34;;;6.79;100.00
39823;BME280;25499;53.958;10.970;2023-04-15T20:14:06;101587.66;;;6.81;100.00
39823;BME280;25499;53.958;10.970;2023-04-15T20:16:41;101581.59;;;6.79;100.00
39823;BME280;25499;53.958;10.970;2023-04-15T20:19:14;101581.75;;;6.87;100.00
39823;BME280;25499;53.958;10.970;2023-04-15T20:21:41;101590.13;;;6.77;100.00
39823;BME280;25499;53.958;10.970;2023-04-15T20:24:07;101588.19;;;6.68;100.00
39823;BME280;25499;53.958;10.970;2023-04-15T20:26:37;101596.16;;;6.76;100.00
39823;BME280;25499;53.958;10.970;2023-04-15T20:29:03;101593.63;;;6.77;100.00
39823;BME280;25499;53.958;10.970;2023-04-15T20:31:29;101597.84;;;6.75;100.00
39823;BME280;25499;53.958;10.970;2023-04-15T20:33:55;101596.97;;;6.75;100.00
39823;BME280;25499;53.958;10.970;2023-04-15T20:36:22;101595.25;;;6.42;100.00
39823;BME280;25499;53.958;10.970;2023-04-15T20:38:47;101602.56;;;6.58;100.00
39823;BME280;25499;53.958;10.970;2023-04-15T20:41:13;101605.88;;;6.52;100.00
39823;BME280;25499;53.958;10.970;2023-04-15T20:43:41;101610.09;;;6.49;100.00
39823;BME280;25499;53.958;10.970;2023-04-15T20:46:09;101612.41;;;6.40;100.00
39823;BME280;25499;53.958;10.970;2023-04-15T20:48:37;101617.81;;;6.47;100.00
39823;BME280;25499;53.958;10.970;2023-04-15T20:51:03;101617.34;;;6.30;100.00
39823;BME280;25499;53.958;10.970;2023-04-15T20:53:29;101616.06;;;6.46;100.00
39823;BME280;25499;53.958;10.970;2023-04-15T20:55:56;101624.75;;;6.48;100.00
39823;BME280;25499;53.958;10.970;2023-04-15T20:58:25;101621.28;;;6.48;100.00
